createdAt,value
2022-10-05T00:01:56.117Z,8.78
2022-10-05T00:04:13.302Z,8.79
2022-10-05T00:06:30.325Z,8.79
2022-10-05T00:08:48.239Z,8.76
2022-10-05T00:11:05.231Z,8.74
2022-10-05T00:13:22.414Z,8.67
2022-10-05T00:15:39.400Z,8.66
2022-10-05T00:17:59.305Z,8.69
2022-10-05T00:20:16.603Z,8.73
2022-10-05T00:22:33.744Z,8.73
2022-10-05T00:24:51.895Z,8.72
2022-10-05T00:27:08.940Z,8.73
2022-10-05T00:29:26.079Z,8.73
2022-10-05T00:31:43.171Z,8.76
2022-10-05T00:34:00.112Z,8.73
2022-10-05T00:36:17.344Z,8.76
2022-10-05T00:38:35.579Z,8.80
2022-10-05T00:40:52.783Z,8.85
2022-10-05T00:43:09.810Z,8.88
2022-10-05T00:45:26.753Z,8.90
2022-10-05T00:47:45.057Z,8.82
2022-10-05T00:50:02.299Z,8.78
2022-10-05T00:52:19.443Z,8.76
2022-10-05T00:54:36.340Z,8.64
2022-10-05T00:56:53.622Z,8.64
2022-10-05T00:59:10.822Z,8.70
2022-10-05T01:01:28.120Z,8.67
2022-10-05T01:03:45.278Z,8.68
2022-10-05T01:06:02.239Z,8.60
2022-10-05T01:08:19.140Z,8.59
2022-10-05T01:10:36.452Z,8.62
2022-10-05T01:12:53.720Z,8.57
2022-10-05T01:15:10.744Z,8.48
2022-10-05T01:17:28.665Z,8.47
2022-10-05T01:19:45.842Z,8.44
2022-10-05T01:22:02.869Z,8.42
2022-10-05T01:24:20.443Z,8.43
2022-10-05T01:26:37.424Z,8.43
2022-10-05T01:28:55.378Z,8.42
2022-10-05T01:31:12.781Z,8.43
2022-10-05T01:33:29.775Z,8.45
2022-10-05T01:35:46.787Z,8.41
2022-10-05T01:38:04.030Z,8.43
2022-10-05T01:40:21.170Z,8.36
2022-10-05T01:42:38.148Z,8.33
2022-10-05T01:44:55.367Z,8.28
2022-10-05T01:47:12.312Z,8.27
2022-10-05T01:49:29.344Z,8.25
2022-10-05T01:51:47.308Z,8.24
2022-10-05T01:54:04.279Z,8.32
2022-10-05T01:56:22.279Z,8.36
2022-10-05T01:58:39.187Z,8.22
2022-10-05T02:00:57.708Z,8.18
2022-10-05T02:03:14.735Z,8.14
2022-10-05T02:05:32.358Z,8.09
2022-10-05T02:07:50.361Z,8.07
2022-10-05T02:10:10.800Z,8.08
2022-10-05T02:12:28.079Z,8.08
2022-10-05T02:14:45.369Z,8.06
2022-10-05T02:17:02.344Z,8.06
2022-10-05T02:19:19.640Z,8.03
2022-10-05T02:21:38.486Z,8.01
2022-10-05T02:23:55.465Z,8.04
2022-10-05T02:26:12.753Z,8.06
2022-10-05T02:28:30.024Z,8.06
2022-10-05T02:30:47.325Z,8.09
2022-10-05T02:33:04.422Z,8.06
2022-10-05T02:35:22.290Z,8.11
2022-10-05T02:37:39.260Z,8.13
2022-10-05T02:39:56.461Z,8.14
2022-10-05T02:42:15.569Z,8.19
2022-10-05T02:44:32.799Z,8.19
2022-10-05T02:46:54.513Z,8.10
2022-10-05T02:49:14.060Z,8.15
2022-10-05T02:51:31.313Z,8.13
2022-10-05T02:53:48.609Z,8.10
2022-10-05T02:56:05.582Z,8.10
2022-10-05T02:58:22.835Z,8.08
2022-10-05T03:00:39.852Z,8.11
2022-10-05T03:02:58.099Z,8.16
2022-10-05T03:05:15.065Z,8.22
2022-10-05T03:07:32.042Z,8.17
2022-10-05T03:09:50.423Z,8.15
2022-10-05T03:12:08.668Z,8.22
2022-10-05T03:14:25.644Z,8.22
2022-10-05T03:16:42.812Z,8.21
2022-10-05T03:19:00.081Z,8.27
2022-10-05T03:21:17.936Z,8.25
2022-10-05T03:23:34.847Z,8.28
2022-10-05T03:25:51.983Z,8.29
2022-10-05T03:28:10.119Z,8.31
2022-10-05T03:30:27.312Z,8.29
2022-10-05T03:32:45.294Z,8.29
2022-10-05T03:35:02.322Z,8.31
2022-10-05T03:37:20.580Z,8.31
2022-10-05T03:39:37.779Z,8.36
2022-10-05T03:41:56.139Z,8.35
2022-10-05T03:44:13.295Z,8.38
2022-10-05T03:46:30.281Z,8.39
2022-10-05T03:48:47.478Z,8.40
2022-10-05T03:51:04.799Z,8.39
2022-10-05T03:53:21.771Z,8.43
2022-10-05T03:55:38.744Z,8.44
2022-10-05T03:57:56.044Z,8.51
2022-10-05T04:00:13.945Z,8.50
2022-10-05T04:02:30.975Z,8.50
2022-10-05T04:04:51.089Z,8.51
2022-10-05T04:07:08.128Z,8.49
2022-10-05T04:09:25.367Z,8.56
2022-10-05T04:11:42.393Z,8.56
2022-10-05T04:13:59.462Z,8.54
2022-10-05T04:16:16.722Z,8.55
2022-10-05T04:18:34.082Z,8.64
2022-10-05T04:20:53.744Z,8.63
2022-10-05T04:23:11.611Z,8.62
2022-10-05T04:25:29.034Z,8.68
2022-10-05T04:27:48.705Z,8.67
2022-10-05T04:30:08.391Z,8.66
2022-10-05T04:32:25.572Z,8.67
2022-10-05T04:34:42.522Z,8.67
2022-10-05T04:37:03.626Z,8.69
2022-10-05T04:39:20.528Z,8.71
2022-10-05T04:41:37.517Z,8.72
2022-10-05T04:43:54.544Z,8.72
2022-10-05T04:46:12.520Z,8.76
2022-10-05T04:48:30.831Z,8.74
2022-10-05T04:50:49.895Z,8.78
2022-10-05T04:53:06.918Z,8.82
2022-10-05T04:55:24.183Z,8.80
2022-10-05T04:57:41.179Z,8.78
2022-10-05T04:59:58.064Z,8.78
2022-10-05T05:02:16.993Z,8.80
2022-10-05T05:04:34.172Z,8.82
2022-10-05T05:06:51.162Z,8.84
2022-10-05T05:09:08.413Z,8.83
2022-10-05T05:11:25.612Z,8.83
2022-10-05T05:13:42.544Z,8.84
2022-10-05T05:15:59.834Z,8.84
2022-10-05T05:18:17.064Z,8.84
2022-10-05T05:20:34.073Z,8.84
2022-10-05T05:22:51.737Z,8.86
2022-10-05T05:25:08.944Z,8.83
2022-10-05T05:27:27.159Z,8.78
2022-10-05T05:29:44.241Z,8.84
2022-10-05T05:32:02.279Z,8.82
2022-10-05T05:34:19.499Z,8.80
2022-10-05T05:36:37.558Z,8.79
2022-10-05T05:38:56.891Z,8.76
2022-10-05T05:41:13.921Z,8.74
2022-10-05T05:43:30.931Z,8.78
2022-10-05T05:45:48.317Z,8.75
2022-10-05T05:48:06.327Z,8.75
2022-10-05T05:50:23.361Z,8.74
2022-10-05T05:52:40.579Z,8.74
2022-10-05T05:54:58.826Z,8.77
2022-10-05T05:57:16.045Z,8.77
2022-10-05T05:59:34.078Z,8.79
2022-10-05T06:01:51.249Z,8.82
2022-10-05T06:04:08.234Z,8.86
2022-10-05T06:06:25.548Z,8.89
2022-10-05T06:08:42.526Z,8.87
2022-10-05T06:10:59.703Z,8.87
2022-10-05T06:13:16.907Z,8.91
2022-10-05T06:15:33.802Z,8.91
2022-10-05T06:17:51.805Z,8.95
2022-10-05T06:20:08.708Z,8.97
2022-10-05T06:22:25.965Z,9.03
2022-10-05T06:24:42.976Z,9.13
2022-10-05T06:26:59.962Z,9.22
2022-10-05T06:29:17.250Z,9.34
2022-10-05T06:31:34.526Z,9.41
2022-10-05T06:33:51.621Z,9.48
2022-10-05T06:36:09.010Z,9.52
2022-10-05T06:38:35.351Z,9.60
2022-10-05T06:40:53.265Z,9.66
2022-10-05T06:43:11.196Z,9.69
2022-10-05T06:45:28.207Z,9.74
2022-10-05T06:47:45.184Z,9.82
2022-10-05T06:50:02.395Z,9.89
2022-10-05T06:52:19.372Z,9.93
2022-10-05T06:54:37.392Z,9.99
2022-10-05T06:56:54.401Z,10.05
2022-10-05T06:59:11.379Z,10.09
2022-10-05T07:01:28.710Z,10.14
2022-10-05T07:03:46.005Z,10.18
2022-10-05T07:06:03.238Z,10.23
2022-10-05T07:08:20.441Z,10.27
2022-10-05T07:10:37.698Z,10.33
2022-10-05T07:12:54.966Z,10.38
2022-10-05T07:15:11.883Z,10.42
2022-10-05T07:17:31.923Z,10.49
2022-10-05T07:19:48.914Z,10.57
2022-10-05T07:22:11.143Z,10.64
2022-10-05T07:24:28.617Z,10.69
2022-10-05T07:26:45.810Z,10.75
2022-10-05T07:29:03.095Z,10.78
2022-10-05T07:31:20.297Z,10.81
2022-10-05T07:33:38.540Z,10.85
2022-10-05T07:35:55.553Z,10.93
2022-10-05T07:38:12.878Z,10.99
2022-10-05T07:40:32.330Z,11.06
2022-10-05T07:42:52.285Z,11.11
2022-10-05T07:45:10.731Z,11.16
2022-10-05T07:47:27.672Z,11.22
2022-10-05T07:49:47.149Z,11.27
2022-10-05T07:52:04.474Z,11.28
2022-10-05T07:54:21.839Z,11.33
2022-10-05T07:56:38.797Z,11.33
2022-10-05T07:58:56.123Z,11.39
2022-10-05T08:01:14.382Z,11.43
2022-10-05T08:03:31.638Z,11.45
2022-10-05T08:05:48.703Z,11.47
2022-10-05T08:08:05.859Z,11.46
2022-10-05T08:10:23.172Z,11.47
2022-10-05T08:12:41.226Z,11.48
2022-10-05T08:14:58.558Z,11.55
2022-10-05T08:17:15.486Z,11.58
2022-10-05T08:19:33.735Z,11.60
2022-10-05T08:21:54.150Z,11.63
2022-10-05T08:24:12.582Z,11.67
2022-10-05T08:26:29.633Z,11.71
2022-10-05T08:28:47.830Z,11.74
2022-10-05T08:31:04.994Z,11.78
2022-10-05T08:33:21.866Z,11.81
2022-10-05T08:35:39.861Z,11.84
2022-10-05T08:37:57.983Z,11.91
2022-10-05T08:40:16.006Z,11.95
2022-10-05T08:42:33.238Z,11.98
2022-10-05T08:44:51.309Z,12.06
2022-10-05T08:47:08.362Z,12.11
2022-10-05T08:49:32.828Z,12.23
2022-10-05T08:51:52.027Z,12.31
2022-10-05T08:54:10.396Z,12.46
2022-10-05T08:56:29.740Z,12.53
2022-10-05T08:58:47.001Z,12.61
2022-10-05T09:01:04.370Z,12.70
2022-10-05T09:03:22.810Z,12.81
2022-10-05T09:05:41.035Z,12.97
2022-10-05T09:07:59.986Z,13.10
2022-10-05T09:10:17.313Z,13.27
2022-10-05T09:12:34.969Z,13.40
2022-10-05T09:15:07.142Z,13.55
2022-10-05T09:17:29.273Z,13.60
2022-10-05T09:19:46.418Z,13.67
2022-10-05T09:22:04.583Z,13.80
2022-10-05T09:24:21.640Z,13.85
2022-10-05T09:29:13.219Z,13.87
2022-10-05T09:31:31.170Z,13.92
2022-10-05T09:33:51.630Z,13.95
2022-10-05T09:36:09.736Z,14.03
2022-10-05T09:38:26.944Z,14.09
2022-10-05T09:40:44.237Z,14.17
2022-10-05T09:43:01.243Z,14.27
2022-10-05T09:45:21.337Z,14.45
2022-10-05T09:47:38.830Z,14.69
2022-10-05T09:49:55.809Z,14.92
2022-10-05T09:52:17.969Z,15.21
2022-10-05T09:54:36.459Z,15.36
2022-10-05T09:56:54.708Z,15.53
2022-10-05T09:59:12.004Z,15.71
2022-10-05T10:01:33.710Z,15.94
2022-10-05T10:03:52.483Z,16.08
2022-10-05T10:06:09.517Z,16.22
2022-10-05T10:08:27.210Z,16.32
2022-10-05T10:10:44.502Z,16.53
2022-10-05T10:13:01.532Z,16.55
2022-10-05T10:15:18.513Z,16.52
2022-10-05T10:17:36.761Z,16.67
2022-10-05T10:19:54.180Z,16.67
2022-10-05T10:22:12.117Z,16.73
2022-10-05T10:24:29.113Z,16.80
2022-10-05T10:26:46.170Z,16.70
2022-10-05T10:29:03.182Z,16.63
2022-10-05T10:31:20.671Z,16.69
2022-10-05T10:33:37.653Z,16.80
2022-10-05T10:35:54.633Z,16.69
2022-10-05T10:38:11.626Z,16.62
2022-10-05T10:40:30.572Z,16.58
2022-10-05T10:42:47.561Z,16.56
2022-10-05T10:45:04.630Z,16.54
2022-10-05T10:47:21.613Z,16.45
2022-10-05T10:49:38.562Z,16.55
2022-10-05T10:51:55.570Z,16.39
2022-10-05T10:54:12.565Z,16.45
2022-10-05T10:56:29.909Z,16.45
2022-10-05T10:58:46.883Z,16.56
2022-10-05T11:01:05.693Z,16.42
2022-10-05T11:03:22.714Z,16.49
2022-10-05T11:05:39.987Z,16.50
2022-10-05T11:07:56.984Z,16.41
2022-10-05T11:10:14.317Z,16.45
2022-10-05T11:12:34.572Z,16.44
2022-10-05T11:14:51.927Z,16.52
2022-10-05T11:17:09.945Z,16.58
2022-10-05T11:19:35.175Z,16.51
2022-10-05T11:22:03.723Z,16.62
2022-10-05T11:24:21.014Z,16.55
2022-10-05T11:26:38.014Z,16.42
2022-10-05T11:28:55.022Z,16.28
2022-10-05T11:31:12.273Z,16.28
2022-10-05T11:33:29.278Z,16.34
2022-10-05T11:35:47.243Z,16.31
2022-10-05T11:38:05.217Z,16.37
2022-10-05T11:40:23.452Z,16.41
2022-10-05T11:42:40.741Z,16.48
2022-10-05T11:44:57.770Z,16.52
2022-10-05T11:47:15.012Z,16.53
2022-10-05T11:49:32.291Z,16.57
2022-10-05T11:51:49.478Z,16.46
2022-10-05T11:54:07.027Z,16.36
2022-10-05T11:56:24.023Z,16.47
2022-10-05T11:58:41.431Z,16.61
2022-10-05T12:00:58.706Z,16.61
2022-10-05T12:03:15.798Z,16.69
2022-10-05T12:05:32.909Z,16.78
2022-10-05T12:07:50.187Z,16.87
2022-10-05T12:10:07.102Z,16.99
2022-10-05T12:12:24.117Z,17.23
2022-10-05T12:14:41.167Z,17.32
2022-10-05T12:16:58.416Z,17.45
2022-10-05T12:19:15.924Z,17.66
2022-10-05T12:21:32.943Z,17.63
2022-10-05T12:23:49.895Z,17.67
2022-10-05T12:26:07.173Z,17.78
2022-10-05T12:28:24.323Z,17.86
2022-10-05T12:30:41.282Z,17.85
2022-10-05T12:33:02.025Z,17.95
2022-10-05T12:35:36.582Z,18.19
2022-10-05T12:37:56.744Z,18.45
2022-10-05T12:40:13.782Z,18.62
2022-10-05T12:42:30.701Z,18.94
2022-10-05T12:44:47.654Z,19.20
2022-10-05T12:47:05.005Z,19.01
2022-10-05T12:49:22.193Z,19.09
2022-10-05T12:51:39.474Z,19.15
2022-10-05T12:53:56.715Z,19.11
2022-10-05T12:56:14.066Z,19.30
2022-10-05T12:58:31.395Z,19.29
2022-10-05T13:00:48.444Z,19.33
2022-10-05T13:22:43.261Z,19.88
2022-10-05T13:25:01.653Z,19.96
2022-10-05T13:27:18.931Z,20.10
2022-10-05T13:29:35.891Z,20.02
2022-10-05T13:31:52.926Z,20.14
2022-10-05T13:34:10.848Z,20.15
2022-10-05T13:36:30.279Z,20.29
2022-10-05T13:38:47.823Z,20.12
2022-10-05T13:41:05.150Z,20.13
2022-10-05T13:43:23.491Z,20.21
2022-10-05T13:45:41.005Z,20.38
2022-10-05T13:47:59.096Z,20.31
2022-10-05T13:50:16.132Z,20.38
2022-10-05T13:52:33.129Z,20.46
2022-10-05T13:54:50.126Z,20.30
2022-10-05T13:57:07.313Z,20.40
2022-10-05T13:59:24.583Z,20.45
2022-10-05T14:01:41.812Z,20.76
2022-10-05T14:03:59.122Z,20.86
2022-10-05T14:06:17.042Z,21.10
2022-10-05T14:08:34.275Z,20.91
2022-10-05T14:10:51.257Z,20.86
2022-10-05T14:15:26.100Z,20.96
2022-10-05T14:17:43.517Z,20.98
2022-10-05T14:20:01.783Z,21.05
2022-10-05T14:22:18.797Z,21.00
2022-10-05T14:24:44.644Z,21.09
2022-10-05T14:27:02.152Z,21.00
2022-10-05T14:29:19.417Z,20.94
2022-10-05T14:31:36.426Z,21.16
2022-10-05T14:33:54.423Z,21.27
2022-10-05T14:36:12.256Z,21.43
2022-10-05T14:38:29.361Z,21.65
2022-10-05T14:40:47.600Z,21.70
2022-10-05T14:43:05.623Z,21.82
2022-10-05T14:45:26.082Z,21.89
2022-10-05T14:47:43.313Z,21.96
2022-10-05T14:50:00.332Z,21.88
2022-10-05T14:52:17.234Z,21.93
2022-10-05T14:54:34.185Z,21.96
2022-10-05T14:56:52.139Z,21.98
2022-10-05T14:59:09.129Z,21.87
2022-10-05T15:01:26.083Z,21.90
2022-10-05T15:03:43.463Z,21.96
2022-10-05T15:06:01.680Z,21.95
2022-10-05T15:08:18.736Z,21.97
2022-10-05T15:10:36.699Z,22.05
2022-10-05T15:12:53.715Z,22.21
2022-10-05T15:15:11.723Z,22.31
2022-10-05T15:17:28.956Z,22.60
2022-10-05T15:19:46.994Z,22.68
2022-10-05T15:22:04.554Z,22.80
2022-10-05T15:24:22.404Z,22.91
2022-10-05T15:26:40.200Z,23.20
2022-10-05T15:28:57.505Z,23.46
2022-10-05T15:31:14.748Z,23.56
2022-10-05T15:33:32.843Z,23.79
2022-10-05T15:35:50.095Z,23.91
2022-10-05T15:38:07.841Z,24.11
2022-10-05T15:40:24.856Z,24.10
2022-10-05T15:42:42.149Z,23.88
2022-10-05T15:44:59.117Z,23.34
2022-10-05T15:47:17.354Z,22.93
2022-10-05T15:49:34.356Z,22.97
2022-10-05T15:51:51.691Z,22.50
2022-10-05T15:54:08.856Z,21.74
2022-10-05T15:56:25.884Z,21.04
2022-10-05T15:58:46.198Z,20.51
2022-10-05T16:01:03.409Z,20.21
2022-10-05T16:03:20.691Z,19.76
2022-10-05T16:05:39.006Z,19.40
2022-10-05T16:07:58.352Z,19.12
2022-10-05T16:10:15.603Z,18.92
2022-10-05T16:12:32.613Z,18.77
2022-10-05T16:14:49.795Z,18.52
2022-10-05T16:17:07.816Z,18.31
2022-10-05T16:19:26.123Z,18.13
2022-10-05T16:21:43.161Z,18.02
2022-10-05T16:24:02.401Z,17.96
2022-10-05T16:26:20.730Z,17.80
2022-10-05T16:28:38.057Z,17.75
2022-10-05T16:30:55.487Z,17.51
2022-10-05T16:33:12.393Z,17.48
2022-10-05T16:35:30.403Z,17.38
2022-10-05T16:37:47.443Z,17.38
2022-10-05T16:40:04.514Z,17.20
2022-10-05T16:42:21.779Z,17.19
2022-10-05T16:44:38.827Z,17.08
2022-10-05T16:46:55.941Z,17.02
2022-10-05T16:49:12.991Z,16.90
2022-10-05T16:51:29.969Z,16.71
2022-10-05T16:53:47.218Z,16.59
2022-10-05T16:56:04.073Z,16.45
2022-10-05T16:58:21.837Z,16.35
2022-10-05T17:00:39.065Z,16.18
2022-10-05T17:02:56.096Z,16.09
2022-10-05T17:05:13.395Z,16.02
2022-10-05T17:07:30.287Z,15.94
2022-10-05T17:09:47.614Z,15.78
2022-10-05T17:12:04.613Z,15.73
2022-10-05T17:14:22.880Z,15.62
2022-10-05T17:16:39.813Z,15.51
2022-10-05T17:18:56.804Z,15.46
2022-10-05T17:21:13.882Z,15.39
2022-10-05T17:23:31.071Z,15.28
2022-10-05T17:25:48.262Z,15.27
2022-10-05T17:28:05.533Z,15.16
2022-10-05T17:30:22.776Z,15.19
2022-10-05T17:32:39.837Z,15.13
2022-10-05T17:34:57.100Z,15.06
2022-10-05T17:37:15.344Z,15.00
2022-10-05T17:39:32.388Z,14.91
2022-10-05T17:41:50.681Z,14.90
2022-10-05T17:44:07.989Z,14.89
2022-10-05T17:46:26.011Z,14.82
2022-10-05T17:48:43.383Z,14.77
2022-10-05T17:51:00.414Z,14.83
2022-10-05T17:53:17.413Z,14.69
2022-10-05T17:55:35.212Z,14.67
2022-10-05T17:57:53.283Z,14.58
2022-10-05T18:00:10.397Z,14.58
2022-10-05T18:02:28.896Z,14.50
2022-10-05T18:04:47.866Z,14.46
2022-10-05T18:07:05.843Z,14.42
2022-10-05T18:09:23.135Z,14.35
2022-10-05T18:11:40.222Z,14.28
2022-10-05T18:13:58.274Z,14.24
2022-10-05T18:16:15.722Z,14.21
2022-10-05T18:18:33.996Z,14.23
2022-10-05T18:20:51.379Z,14.18
2022-10-05T18:23:09.444Z,14.15
2022-10-05T18:25:26.743Z,14.18
2022-10-05T18:27:44.965Z,14.10
2022-10-05T18:30:02.297Z,14.01
2022-10-05T18:32:20.609Z,13.96
2022-10-05T18:34:37.848Z,13.94
2022-10-05T18:36:55.362Z,13.89
2022-10-05T18:39:13.413Z,13.85
2022-10-05T18:41:30.296Z,13.85
2022-10-05T18:43:48.792Z,13.86
2022-10-05T18:46:06.148Z,13.78
2022-10-05T18:48:23.732Z,13.72
2022-10-05T18:50:41.084Z,13.70
2022-10-05T18:53:01.196Z,13.64
2022-10-05T18:55:18.465Z,13.65
2022-10-05T18:57:35.416Z,13.60
2022-10-05T18:59:52.669Z,13.56
2022-10-05T19:02:10.316Z,13.59
2022-10-05T19:04:27.595Z,13.52
2022-10-05T19:06:45.657Z,13.46
2022-10-05T19:09:02.723Z,13.44
2022-10-05T19:11:19.753Z,13.39
2022-10-05T19:13:37.131Z,13.37
2022-10-05T19:15:54.265Z,13.34
2022-10-05T19:18:11.375Z,13.32
2022-10-05T19:20:28.788Z,13.36
2022-10-05T19:22:45.809Z,13.30
2022-10-05T19:25:02.771Z,13.30
2022-10-05T19:27:21.051Z,13.27
2022-10-05T19:29:39.031Z,13.25
2022-10-05T19:31:56.740Z,13.22
2022-10-05T19:34:14.713Z,13.19
2022-10-05T19:36:33.098Z,13.19
2022-10-05T19:38:50.109Z,13.16
2022-10-05T19:41:07.162Z,13.12
2022-10-05T19:43:26.086Z,13.10
2022-10-05T19:45:43.352Z,13.04
2022-10-05T19:48:00.618Z,13.06
2022-10-05T19:50:17.855Z,13.04
2022-10-05T19:52:34.950Z,13.01
2022-10-05T19:54:52.327Z,13.02
2022-10-05T19:57:09.591Z,12.95
2022-10-05T19:59:26.703Z,12.90
2022-10-05T20:01:43.967Z,12.86
2022-10-05T20:04:02.295Z,12.84
2022-10-05T20:06:19.317Z,12.81
2022-10-05T20:08:37.366Z,12.79
2022-10-05T20:10:54.274Z,12.78
2022-10-05T20:13:11.161Z,12.76
2022-10-05T20:15:28.510Z,12.71
2022-10-05T20:17:45.410Z,12.72
2022-10-05T20:20:03.292Z,12.70
2022-10-05T20:22:20.408Z,12.66
2022-10-05T20:24:38.607Z,12.67
2022-10-05T20:26:55.731Z,12.67
2022-10-05T20:29:12.753Z,12.63
2022-10-05T20:31:29.924Z,12.63
2022-10-05T20:33:46.962Z,12.62
2022-10-05T20:36:03.922Z,12.59
2022-10-05T20:38:21.963Z,12.59
2022-10-05T20:40:38.998Z,12.57
2022-10-05T20:42:55.968Z,12.54
2022-10-05T20:45:13.090Z,12.50
2022-10-05T20:47:31.078Z,12.43
2022-10-05T20:49:48.052Z,12.42
2022-10-05T20:52:05.639Z,12.34
2022-10-05T20:54:26.353Z,12.33
2022-10-05T20:56:43.503Z,12.34
2022-10-05T20:59:00.729Z,12.28
2022-10-05T21:01:18.054Z,12.23
2022-10-05T21:03:34.988Z,12.21
2022-10-05T21:05:52.512Z,12.18
2022-10-05T21:08:09.869Z,12.15
2022-10-05T21:10:26.920Z,12.14
2022-10-05T21:12:44.204Z,12.14
2022-10-05T21:15:02.204Z,12.06
2022-10-05T21:17:19.213Z,11.99
2022-10-05T21:19:36.246Z,11.96
2022-10-05T21:21:54.023Z,11.92
2022-10-05T21:24:11.284Z,11.84
2022-10-05T21:26:28.336Z,11.85
2022-10-05T21:28:45.716Z,11.81
2022-10-05T21:31:02.733Z,11.75
2022-10-05T21:33:20.031Z,11.73
2022-10-05T21:35:37.091Z,11.69
2022-10-05T21:37:54.092Z,11.66
2022-10-05T21:40:11.171Z,11.61
2022-10-05T21:42:28.419Z,11.59
2022-10-05T21:44:45.648Z,11.57
2022-10-05T21:47:02.654Z,11.53
2022-10-05T21:49:19.991Z,11.52
2022-10-05T21:51:36.983Z,11.52
2022-10-05T21:53:54.174Z,11.52
2022-10-05T21:56:11.473Z,11.50
2022-10-05T21:58:28.980Z,11.46
2022-10-05T22:00:46.455Z,11.44
2022-10-05T22:03:06.692Z,11.47
2022-10-05T22:05:23.794Z,11.43
2022-10-05T22:07:40.869Z,11.40
2022-10-05T22:09:58.192Z,11.37
2022-10-05T22:12:15.260Z,11.34
2022-10-05T22:14:32.593Z,11.31
2022-10-05T22:16:49.795Z,11.32
2022-10-05T22:19:06.940Z,11.28
2022-10-05T22:21:25.946Z,11.23
2022-10-05T22:23:43.266Z,11.20
2022-10-05T22:26:00.396Z,11.15
2022-10-05T22:28:17.554Z,11.10
2022-10-05T22:30:35.628Z,11.08
2022-10-05T22:32:52.735Z,11.05
2022-10-05T22:35:13.861Z,11.02
2022-10-05T22:37:33.108Z,11.02
2022-10-05T22:39:50.323Z,10.97
2022-10-05T22:42:07.454Z,10.91
2022-10-05T22:44:25.337Z,10.88
2022-10-05T22:46:44.980Z,10.94
2022-10-05T22:49:02.002Z,10.87
2022-10-05T22:51:19.417Z,10.85
2022-10-05T22:53:37.758Z,10.87
2022-10-05T22:55:56.737Z,10.81
2022-10-05T22:58:13.863Z,10.73
2022-10-05T23:00:53.244Z,10.71
2022-10-05T23:03:07.856Z,10.68
2022-10-05T23:05:24.865Z,10.67
2022-10-05T23:07:41.926Z,10.64
2022-10-05T23:10:02.566Z,10.62
2022-10-05T23:12:22.344Z,10.63
2022-10-05T23:14:39.656Z,10.61
2022-10-05T23:16:57.283Z,10.57
2022-10-05T23:19:14.484Z,10.56
2022-10-05T23:21:31.456Z,10.53
2022-10-05T23:23:48.604Z,10.46
2022-10-05T23:26:05.554Z,10.51
2022-10-05T23:28:23.716Z,10.48
2022-10-05T23:30:41.840Z,10.44
2022-10-05T23:32:58.966Z,10.42
2022-10-05T23:35:16.933Z,10.39
2022-10-05T23:37:34.171Z,10.40
2022-10-05T23:39:51.209Z,10.41
2022-10-05T23:42:08.323Z,10.40
2022-10-05T23:44:25.300Z,10.46
2022-10-05T23:46:42.540Z,10.43
2022-10-05T23:48:59.456Z,10.44
2022-10-05T23:51:16.427Z,10.38
2022-10-05T23:53:33.371Z,10.36
2022-10-05T23:55:50.247Z,10.35
2022-10-05T23:58:08.214Z,10.33
